Time;durP1;ratioP1;P1;durP2;ratioP2;P2;SDS_P1;SDS_P2;PMS_P1;PMS_P2;Temp;Humidity;BMP_temperature;BMP_pressure;BME280_temperature;BME280_humidity;BME280_pressure;Samples;Min_cycle;Max_cycle;Signal;HPM_P1;HPM_P2
2024/01/05 00:02:29;;;;;;;;;;;6.50;56.70;;;4.72;60.33;100423.91;12245149;19;19915;-85
2024/01/05 00:06:30;;;;;;;;;;;6.30;56.50;;;4.63;60.35;100427.69;12244482;19;20375;-85
2024/01/05 00:10:32;;;;;;;;;;;6.30;56.50;;;4.63;60.26;100440.63;12245166;19;19919;-85
2024/01/05 00:14:37;;;;;;;;;;;6.30;56.40;;;4.30;60.64;100390.94;12249115;19;19948;-85
2024/01/05 00:18:39;;;;;;;;;;;6.20;56.40;;;4.39;60.79;100407.88;12250137;19;20350;-85
2024/01/05 00:22:40;;;;;;;;;;;6.20;56.50;;;4.44;60.64;100422.31;12257570;19;19921;-85
2024/01/05 00:26:43;;;;;;;;;;;6.30;56.60;;;4.54;60.62;100432.34;12253139;19;19936;-85
2024/01/05 00:30:44;;;;;;;;;;;6.30;56.70;;;4.34;60.59;100402.00;12256822;19;19911;-86
2024/01/05 00:34:46;;;;;;;;;;;6.20;56.70;;;4.31;60.59;100394.38;12253522;19;20329;-85
2024/01/05 00:38:48;;;;;;;;;;;6.30;56.80;;;4.56;60.58;100431.38;12252709;19;19919;-85
2024/01/05 00:42:50;;;;;;;;;;;6.20;56.70;;;4.42;60.43;100402.59;12254340;19;19919;-85
2024/01/05 00:46:52;;;;;;;;;;;6.20;56.70;;;4.63;60.58;100455.28;12252968;19;19936;-85
2024/01/05 00:50:53;;;;;;;;;;;6.20;56.60;;;4.66;60.72;100455.19;12255282;19;19978;-85
2024/01/05 00:54:55;;;;;;;;;;;6.40;56.70;;;4.65;60.62;100458.69;12254342;19;19923;-85
2024/01/05 00:58:57;;;;;;;;;;;6.20;56.60;;;4.57;60.65;100447.75;12253656;19;19919;-85
2024/01/05 01:02:58;;;;;;;;;;;6.40;56.70;;;4.58;60.69;100446.84;12253519;19;20264;-85
2024/01/05 01:07:00;;;;;;;;;;;6.40;56.70;;;4.50;60.48;100438.50;12250348;19;19923;-85
2024/01/05 01:11:02;;;;;;;;;;;6.20;56.60;;;4.53;60.54;100430.66;12254607;19;20265;-85
2024/01/05 01:15:04;;;;;;;;;;;6.20;56.60;;;4.62;60.73;100454.47;12251782;19;19911;-85
2024/01/05 01:19:05;;;;;;;;;;;6.20;56.60;;;4.61;60.56;100463.09;12253991;19;20393;-85
2024/01/05 01:23:07;;;;;;;;;;;6.20;56.60;;;4.54;60.67;100447.88;12254232;19;19911;-85
2024/01/05 01:27:08;;;;;;;;;;;6.20;56.60;;;4.53;60.49;100448.75;12249340;19;19915;-85
2024/01/05 01:31:10;;;;;;;;;;;6.20;56.60;;;4.59;60.61;100444.22;12252853;19;19907;-85
2024/01/05 01:35:11;;;;;;;;;;;6.20;56.60;;;4.49;60.44;100432.50;12251303;19;20324;-85
2024/01/05 01:39:13;;;;;;;;;;;6.40;56.70;;;4.54;60.44;100434.94;12253032;19;19910;-85
2024/01/05 01:43:19;;;;;;;;;;;6.10;56.60;;;4.26;60.52;100385.91;12253150;19;20075;-85
2024/01/05 01:47:21;;;;;;;;;;;6.10;56.60;;;4.52;60.75;100418.63;12249788;19;19935;-85
2024/01/05 01:51:23;;;;;;;;;;;6.10;56.60;;;4.49;60.53;100419.56;12252125;19;20325;-85
2024/01/05 01:55:26;;;;;;;;;;;6.10;56.60;;;4.43;60.65;100412.88;12250183;19;20426;-85
2024/01/05 01:59:28;;;;;;;;;;;6.10;56.60;;;4.38;60.79;100403.59;12252798;19;19934;-85
2024/01/05 02:03:29;;;;;;;;;;;6.10;56.60;;;4.49;60.76;100405.81;12251312;19;19923;-85
2024/01/05 02:07:31;;;;;;;;;;;6.10;56.70;;;4.37;60.62;100382.06;12244597;19;19919;-85
2024/01/05 02:11:33;;;;;;;;;;;6.10;56.70;;;4.40;60.49;100399.19;12252596;19;20029;-85
2024/01/05 02:15:34;;;;;;;;;;;6.00;56.60;;;4.39;60.57;100398.38;12250396;19;20166;-85
2024/01/05 02:19:36;;;;;;;;;;;6.10;56.60;;;4.39;60.72;100408.69;12252491;19;19983;-85
2024/01/05 02:23:37;;;;;;;;;;;6.00;56.60;;;4.38;60.65;100404.44;12251205;19;19930;-85
2024/01/05 02:27:39;;;;;;;;;;;6.00;56.70;;;4.45;60.63;100428.31;12246052;19;20257;-85
2024/01/05 02:31:41;;;;;;;;;;;6.30;56.90;;;4.39;60.72;100411.28;12251553;19;19935;-85
2024/01/05 02:35:42;;;;;;;;;;;6.00;56.80;;;4.52;60.53;100431.56;12249572;19;19939;-85
2024/01/05 02:39:44;;;;;;;;;;;6.10;56.80;;;4.52;60.51;100434.16;12249438;19;20387;-85
2024/01/05 02:43:46;;;;;;;;;;;6.10;56.70;;;4.46;60.86;100419.69;12250424;19;19919;-85
2024/01/05 02:47:49;;;;;;;;;;;6.10;56.70;;;4.28;60.72;100381.56;12247235;19;19986;-85
2024/01/05 02:51:50;;;;;;;;;;;6.30;56.80;;;4.42;60.52;100395.66;12247861;19;20335;-85
2024/01/05 02:55:51;;;;;;;;;;;6.10;56.70;;;4.35;60.69;100381.28;12248565;19;19933;-85
2024/01/05 02:59:53;;;;;;;;;;;6.00;56.70;;;4.28;60.64;100366.03;12247064;19;20648;-85
2024/01/05 03:03:54;;;;;;;;;;;6.00;56.70;;;4.39;60.49;100374.25;12248739;19;19918;-85
2024/01/05 03:07:56;;;;;;;;;;;6.00;56.80;;;4.21;60.58;100336.97;12243604;19;19935;-85
2024/01/05 03:11:57;;;;;;;;;;;6.00;56.80;;;4.36;60.56;100372.63;12248526;19;19914;-85
2024/01/05 03:15:59;;;;;;;;;;;6.00;56.80;;;4.37;60.59;100382.06;12246515;19;19923;-85
2024/01/05 03:20:00;;;;;;;;;;;6.00;56.80;;;4.17;60.68;100349.16;12248060;19;19911;-85
2024/01/05 03:24:02;;;;;;;;;;;5.90;56.80;;;4.39;60.91;100379.44;12246603;19;20273;-85
2024/01/05 03:28:03;;;;;;;;;;;6.00;56.80;;;4.43;60.91;100397.38;12246066;19;19931;-85
2024/01/05 03:32:05;;;;;;;;;;;6.00;56.80;;;4.19;60.72;100351.72;12247401;19;19906;-85
2024/01/05 03:36:07;;;;;;;;;;;6.00;56.80;;;4.33;60.58;100364.16;12245326;19;19934;-85
2024/01/05 03:40:08;;;;;;;;;;;6.00;56.80;;;4.32;60.60;100352.09;12246841;19;20261;-85
2024/01/05 03:44:10;;;;;;;;;;;6.00;56.80;;;4.29;60.64;100345.28;12246329;19;19915;-85
2024/01/05 03:48:12;;;;;;;;;;;6.00;56.70;;;4.34;60.82;100345.97;12245965;19;19907;-85
2024/01/05 03:52:13;;;;;;;;;;;6.10;56.80;;;4.37;60.81;100352.78;12259176;19;19935;-85
2024/01/05 03:56:15;;;;;;;;;;;5.90;56.70;;;4.01;60.69;100292.91;12256751;19;20362;-85
2024/01/05 04:00:17;;;;;;;;;;;5.90;56.70;;;4.23;60.68;100337.78;12258488;19;19918;-85
2024/01/05 04:04:18;;;;;;;;;;;5.90;56.70;;;4.12;60.67;100314.88;12258935;19;19931;-85
2024/01/05 04:08:20;;;;;;;;;;;5.90;56.70;;;4.28;60.55;100335.88;12251949;19;19911;-85
2024/01/05 04:12:21;;;;;;;;;;;6.10;56.80;;;4.29;60.75;100342.72;12258151;19;19914;-85
2024/01/05 04:16:23;;;;;;;;;;;5.90;56.70;;;4.28;60.81;100341.03;12251687;19;19914;-85
2024/01/05 04:20:24;;;;;;;;;;;5.80;56.70;;;4.27;60.79;100341.09;12257355;19;20265;-85
2024/01/05 04:24:26;;;;;;;;;;;5.80;56.70;;;4.17;60.81;100325.06;12256550;19;19930;-85
2024/01/05 04:28:27;;;;;;;;;;;5.90;56.70;;;4.14;60.88;100325.19;12251978;19;20314;-85
2024/01/05 04:32:29;;;;;;;;;;;6.10;56.90;;;4.24;60.75;100331.72;12257555;19;19926;-85
2024/01/05 04:36:30;;;;;;;;;;;5.80;56.70;;;4.20;60.89;100333.56;12253636;19;19938;-85
2024/01/05 04:40:32;;;;;;;;;;;5.80;56.80;;;3.93;60.57;100286.28;12256316;19;19911;-85
2024/01/05 04:44:33;;;;;;;;;;;5.80;56.80;;;4.17;60.71;100328.50;12256404;19;19929;-85
2024/01/05 04:48:35;;;;;;;;;;;5.80;56.70;;;4.20;60.82;100336.13;12252295;19;20287;-85
2024/01/05 04:52:36;;;;;;;;;;;6.00;56.80;;;4.21;60.83;100336.97;12255884;19;19915;-85
2024/01/05 04:56:38;;;;;;;;;;;5.80;56.80;;;4.15;60.79;100325.13;12254470;19;20413;-85
2024/01/05 05:00:39;;;;;;;;;;;5.80;56.70;;;4.17;60.73;100325.91;12248102;19;19930;-86
2024/01/05 05:04:41;;;;;;;;;;;6.00;56.80;;;3.93;60.71;100282.84;12256721;19;20321;-85
2024/01/05 05:08:42;;;;;;;;;;;5.80;56.80;;;4.16;60.76;100319.06;12250833;19;19918;-86
2024/01/05 05:12:44;;;;;;;;;;;5.80;56.90;;;4.14;60.83;100307.09;12255422;19;19907;-85
2024/01/05 05:16:45;;;;;;;;;;;5.80;56.90;;;4.06;60.91;100283.28;12252712;19;19923;-85
2024/01/05 05:20:47;;;;;;;;;;;6.00;57.10;;;4.03;60.70;100268.72;12251208;19;19926;-85
2024/01/05 05:24:50;;;;;;;;;;;5.70;56.90;;;4.07;60.84;100278.03;12253489;19;19935;-86
2024/01/05 05:28:51;;;;;;;;;;;5.70;56.90;;;4.09;60.75;100272.81;12251167;19;19915;-86
2024/01/05 05:32:53;;;;;;;;;;;5.80;57.00;;;4.05;60.72;100266.94;12249216;19;19922;-86
2024/01/05 05:36:54;;;;;;;;;;;5.70;57.00;;;3.72;60.84;100215.56;12251740;19;19915;-86
2024/01/05 05:40:55;;;;;;;;;;;5.80;57.00;;;3.93;60.79;100251.84;12252148;19;19911;-86
2024/01/05 05:44:57;;;;;;;;;;;5.60;56.90;;;3.89;60.85;100245.97;12253341;19;19930;-86
2024/01/05 05:48:58;;;;;;;;;;;5.60;57.00;;;4.03;60.67;100257.56;12248973;19;19926;-86
2024/01/05 05:53:00;;;;;;;;;;;5.60;57.30;;;3.90;60.86;100241.63;12251943;19;19922;-86
2024/01/05 05:57:02;;;;;;;;;;;5.60;57.00;;;3.89;60.92;100251.13;12251237;19;20258;-86
2024/01/05 06:01:05;;;;;;;;;;;5.60;56.90;;;3.93;60.68;100257.88;12247979;19;20348;-86
2024/01/05 06:05:07;;;;;;;;;;;5.60;56.90;;;3.71;60.89;100229.38;12251351;19;19914;-86
2024/01/05 06:09:14;;;;;;;;;;;5.60;56.90;;;3.84;61.11;100250.44;12246862;19;20561;-85
2024/01/05 06:13:15;;;;;;;;;;;5.60;56.90;;;3.89;60.96;100270.94;12250782;19;19947;-86
2024/01/05 06:17:18;;;;;;;;;;;5.70;57.10;;;3.91;60.97;100276.88;12247848;19;20021;-86
2024/01/05 06:21:20;;;;;;;;;;;5.70;57.10;;;3.97;61.10;100299.94;12258920;19;19931;-86
2024/01/05 06:25:21;;;;;;;;;;;5.50;57.10;;;3.74;60.92;100259.41;12260290;19;20380;-87
2024/01/05 06:29:23;;;;;;;;;;;5.60;57.00;;;3.92;60.89;100301.84;12260200;19;20260;-86
2024/01/05 06:33:25;;;;;;;;;;;5.60;57.00;;;3.69;60.98;100263.88;12262532;19;19946;-87
2024/01/05 06:37:26;;;;;;;;;;;5.90;57.10;;;4.01;60.88;100311.00;12256022;19;20551;-88
2024/01/05 06:41:28;;;;;;;;;;;5.60;57.10;;;3.88;60.96;100300.25;12255827;19;19939;-86
2024/01/05 06:45:29;;;;;;;;;;;5.80;57.10;;;3.94;61.00;100316.41;12247758;19;19907;-86
2024/01/05 06:49:31;;;;;;;;;;;5.60;56.90;;;3.97;61.10;100326.63;12245303;19;19924;-86
2024/01/05 06:53:32;;;;;;;;;;;5.80;57.10;;;3.83;61.00;100304.72;12250699;19;19911;-87
2024/01/05 06:57:35;;;;;;;;;;;5.60;57.00;;;3.91;60.82;100324.22;12245606;19;19915;-85
2024/01/05 07:01:37;;;;;;;;;;;5.60;57.00;;;4.06;61.03;100340.13;12249218;19;19919;-85
2024/01/05 07:05:39;;;;;;;;;;;5.80;57.10;;;4.05;60.92;100343.56;12248546;19;20290;-84
2024/01/05 07:09:40;;;;;;;;;;;5.60;56.90;;;3.72;61.04;100280.09;12250242;19;19925;-85
2024/01/05 07:13:42;;;;;;;;;;;5.60;56.90;;;4.00;60.74;100330.84;12246247;19;19927;-85
2024/01/05 07:17:44;;;;;;;;;;;5.60;56.90;;;3.64;61.00;100269.19;12248500;19;19915;-85
2024/01/05 07:21:45;;;;;;;;;;;5.60;56.90;;;3.86;60.99;100310.66;12248065;19;19927;-85
2024/01/05 07:25:47;;;;;;;;;;;5.80;57.10;;;3.91;60.84;100315.63;12249331;19;19935;-85
2024/01/05 07:29:48;;;;;;;;;;;5.70;57.10;;;3.68;60.93;100272.53;12250537;19;19918;-85
2024/01/05 07:33:50;;;;;;;;;;;5.50;57.10;;;3.49;60.83;100252.50;12248748;19;19938;-84
2024/01/05 07:37:52;;;;;;;;;;;5.80;57.20;;;3.72;60.71;100289.59;12245933;19;20337;-85
2024/01/05 07:41:54;;;;;;;;;;;5.60;57.50;;;3.75;60.79;100281.75;12248501;19;20292;-85
2024/01/05 07:45:56;;;;;;;;;;;5.50;57.10;;;3.70;61.13;100265.56;12246836;19;19918;-85
2024/01/05 07:49:58;;;;;;;;;;;5.40;57.10;;;3.67;60.82;100271.69;12247617;19;19943;-86
2024/01/05 07:53:59;;;;;;;;;;;5.40;57.00;;;3.68;61.03;100273.38;12244331;19;19923;-84
2024/01/05 07:58:01;;;;;;;;;;;5.40;57.70;;;3.76;61.08;100286.03;12245783;19;19934;-83
2024/01/05 08:02:03;;;;;;;;;;;5.40;57.40;;;3.52;60.91;100247.22;12247131;19;19918;-84
2024/01/05 08:06:05;;;;;;;;;;;5.40;57.20;;;3.44;60.74;100218.25;12246165;19;19933;-84
2024/01/05 08:10:07;;;;;;;;;;;5.40;57.30;;;3.74;60.86;100277.47;12248725;19;19911;-84
2024/01/05 08:14:08;;;;;;;;;;;5.40;57.40;;;3.70;60.96;100260.41;12246324;19;19931;-84
2024/01/05 08:18:11;;;;;;;;;;;5.60;57.50;;;3.45;61.01;100230.25;12243322;19;19927;-84
2024/01/05 08:22:12;;;;;;;;;;;5.30;57.20;;;3.70;60.86;100268.13;12246020;19;19926;-84
2024/01/05 08:26:17;;;;;;;;;;;5.30;57.40;;;3.74;61.12;100280.91;12244117;19;20325;-84
2024/01/05 08:30:19;;;;;;;;;;;5.30;57.40;;;3.63;60.97;100264.09;12248269;19;19928;-84
2024/01/05 08:34:20;;;;;;;;;;;5.30;57.40;;;3.80;60.95;100300.50;12249532;19;20253;-84
2024/01/05 08:38:21;;;;;;;;;;;5.30;57.30;;;3.75;61.02;100299.81;12254477;19;20381;-83
2024/01/05 08:42:23;;;;;;;;;;;5.40;57.40;;;3.75;60.99;100311.00;12259379;19;19919;-84
2024/01/05 08:46:28;;;;;;;;;;;5.30;57.30;;;3.48;60.86;100255.13;12256476;19;19926;-84
2024/01/05 08:50:29;;;;;;;;;;;5.20;57.30;;;3.69;61.11;100295.69;12255622;19;19922;-84
2024/01/05 08:54:31;;;;;;;;;;;5.60;57.50;;;3.43;61.04;100247.56;12255649;19;19929;-83
2024/01/05 08:58:32;;;;;;;;;;;5.30;57.40;;;3.60;60.98;100284.84;12245176;19;19919;-83
2024/01/05 09:02:34;;;;;;;;;;;5.30;57.40;;;3.59;61.10;100270.25;12256066;19;19942;-83
2024/01/05 09:06:37;;;;;;;;;;;5.30;57.40;;;3.49;60.97;100251.66;12253052;19;19914;-84
2024/01/05 09:10:39;;;;;;;;;;;5.60;57.40;;;3.40;61.21;100239.03;12257155;19;19944;-84
2024/01/05 09:14:41;;;;;;;;;;;5.20;57.40;;;3.63;61.22;100277.00;12256060;19;19910;-84
2024/01/05 09:18:43;;;;;;;;;;;5.20;57.40;;;3.64;61.13;100278.69;12252216;19;20284;-84
2024/01/05 09:22:45;;;;;;;;;;;5.20;57.40;;;3.67;61.26;100286.31;12255554;19;19918;-85
2024/01/05 09:26:49;;;;;;;;;;;5.20;57.50;;;3.59;61.10;100265.91;12253676;19;20685;-85
2024/01/05 09:30:51;;;;;;;;;;;5.30;57.50;;;3.62;61.05;100264.97;12255728;19;19915;-84
2024/01/05 09:34:53;;;;;;;;;;;5.30;57.60;;;3.47;61.05;100232.78;12254053;19;19923;-84
2024/01/05 09:38:54;;;;;;;;;;;5.30;57.60;;;3.53;61.05;100245.47;12256843;19;19919;-84
2024/01/05 09:42:57;;;;;;;;;;;5.30;57.60;;;3.70;61.17;100266.44;12252327;19;19932;-84
2024/01/05 09:46:59;;;;;;;;;;;5.30;58.00;;;3.51;61.27;100239.53;12249178;19;19937;-85
2024/01/05 09:51:03;;;;;;;;;;;5.30;57.60;;;3.60;61.25;100259.03;12254102;19;19960;-84
2024/01/05 09:55:05;;;;;;;;;;;5.30;57.80;;;3.60;61.27;100257.31;12253794;19;20343;-84
2024/01/05 09:59:07;;;;;;;;;;;5.30;57.60;;;3.63;61.11;100244.28;12253179;19;19923;-85
2024/01/05 10:03:10;;;;;;;;;;;5.30;57.60;;;3.58;61.28;100240.19;12253984;19;19919;-83
2024/01/05 10:07:12;;;;;;;;;;;5.30;57.60;;;3.66;61.07;100243.34;12249469;19;19921;-84
2024/01/05 10:11:26;;;;;;;;;;;5.30;57.60;;;3.67;61.09;100250.16;12254243;19;19915;-84
2024/01/05 10:15:28;;;;;;;;;;;5.30;57.50;;;3.44;61.20;100210.50;12250537;19;19919;-84
2024/01/05 10:19:29;;;;;;;;;;;5.30;57.60;;;3.60;61.21;100228.06;12252309;19;19932;-84
2024/01/05 10:23:31;;;;;;;;;;;5.30;57.60;;;3.59;61.33;100226.34;12252355;19;19947;-84
2024/01/05 10:27:32;;;;;;;;;;;5.30;57.80;;;3.64;61.12;100224.47;12240125;19;19978;-84
2024/01/05 10:31:34;;;;;;;;;;;5.30;58.10;;;3.32;61.17;100162.75;12247213;19;19922;-84
2024/01/05 10:35:36;;;;;;;;;;;5.30;58.00;;;3.36;61.39;100163.47;12250820;19;19915;-84
2024/01/05 10:39:38;;;;;;;;;;;5.20;58.30;;;3.65;61.30;100202.94;12247193;19;19922;-84
2024/01/05 10:43:41;;;;;;;;;;;5.30;58.30;;;3.63;61.07;100196.97;12248900;19;19942;-84
2024/01/05 10:47:42;;;;;;;;;;;5.20;57.90;;;3.53;61.34;100189.53;12233593;19;20011;-83
2024/01/05 10:51:44;;;;;;;;;;;5.20;57.60;;;3.58;61.42;100176.47;12242840;19;19911;-83
2024/01/05 10:55:45;;;;;;;;;;;5.20;57.60;;;3.46;61.16;100151.13;12244272;19;19923;-83
2024/01/05 10:59:48;;;;;;;;;;;5.30;57.80;;;3.59;61.25;100165.25;12247548;19;20507;-84
2024/01/05 11:03:52;;;;;;;;;;;5.30;58.20;;;3.69;61.35;100186.41;12247354;19;19918;-83
2024/01/05 11:07:55;;;;;;;;;;;5.30;58.20;;;3.68;61.23;100185.59;12238655;19;20400;-84
2024/01/05 11:12:14;;;;;;;;;;;5.40;58.00;;;3.70;61.31;100180.34;12250553;19;19982;-84
2024/01/05 11:16:54;;;;;;;;;;;5.30;58.10;;;3.67;61.27;100163.25;12252651;19;19937;-85
2024/01/05 11:21:19;;;;;;;;;;;5.30;58.50;;;3.69;61.48;100166.59;12244402;19;19919;-84
2024/01/05 11:25:21;;;;;;;;;;;5.30;58.20;;;3.65;61.42;100154.72;12251383;19;19964;-84
2024/01/05 11:29:47;;;;;;;;;;;5.30;58.40;;;3.70;61.30;100157.97;12248012;19;19921;-84
2024/01/05 11:33:49;;;;;;;;;;;5.30;58.10;;;3.75;61.41;100150.03;12249670;19;19915;-84
2024/01/05 11:37:51;;;;;;;;;;;5.50;58.20;;;3.70;61.32;100136.47;12247031;19;19922;-84
2024/01/05 11:41:52;;;;;;;;;;;5.40;58.10;;;3.73;61.48;100118.28;12247843;19;19922;-84
2024/01/05 11:45:54;;;;;;;;;;;5.40;58.50;;;3.78;61.31;100116.38;12246777;19;20353;-84
2024/01/05 11:49:55;;;;;;;;;;;5.40;58.80;;;3.47;61.45;100050.38;12248316;19;19922;-84
2024/01/05 11:53:58;;;;;;;;;;;5.60;58.20;;;3.72;61.42;100096.78;12251124;19;19919;-84
2024/01/05 11:57:59;;;;;;;;;;;5.30;58.10;;;3.66;61.54;100084.09;12247655;19;20638;-85
2024/01/05 12:02:01;;;;;;;;;;;5.30;58.60;;;3.60;61.42;100070.59;12248421;19;19913;-85
2024/01/05 12:06:03;;;;;;;;;;;5.30;58.20;;;3.46;61.40;100033.22;12246099;19;19999;-85
2024/01/05 12:10:05;;;;;;;;;;;5.30;58.20;;;3.63;61.37;100070.47;12256393;19;19915;-84
2024/01/05 12:14:06;;;;;;;;;;;5.40;58.10;;;3.76;61.38;100079.44;12257491;19;19927;-84
2024/01/05 12:18:08;;;;;;;;;;;5.30;58.10;;;3.75;61.52;100098.41;12255975;19;19914;-84
2024/01/05 12:22:09;;;;;;;;;;;5.40;58.10;;;3.82;61.54;100099.03;12256609;19;19914;-83
2024/01/05 12:26:11;;;;;;;;;;;5.60;58.30;;;3.47;61.40;100032.31;12256833;19;19919;-84
2024/01/05 12:30:13;;;;;;;;;;;5.40;58.10;;;3.53;61.36;100031.25;12254720;19;19921;-84
2024/01/05 12:34:17;;;;;;;;;;;5.40;57.90;;;3.81;61.42;100084.41;12253693;19;19918;-84
2024/01/05 12:38:23;;;;;;;;;;;5.70;57.90;;;3.85;61.40;100073.91;12251103;19;19935;-84
2024/01/05 12:42:24;;;;;;;;;;;5.40;58.00;;;3.81;61.35;100066.34;12255018;19;19911;-84
2024/01/05 12:46:26;;;;;;;;;;;5.50;58.00;;;3.79;61.51;100056.09;12253682;19;19946;-84
2024/01/05 12:50:29;;;;;;;;;;;5.40;58.40;;;3.78;61.25;100057.00;12253843;19;19938;-84
2024/01/05 12:54:43;;;;;;;;;;;5.40;58.00;;;3.76;61.28;100058.78;12252393;19;19927;-84
2024/01/05 12:58:47;;;;;;;;;;;5.40;58.10;;;3.83;61.68;100073.13;12248595;19;19946;-84
2024/01/05 13:02:48;;;;;;;;;;;5.40;58.00;;;3.79;61.51;100060.41;12255489;19;19935;-84
2024/01/05 13:06:49;;;;;;;;;;;5.40;57.90;;;3.60;61.42;100034.44;12249561;19;19918;-83
2024/01/05 13:10:51;;;;;;;;;;;5.40;58.00;;;3.71;61.37;100060.69;12251624;19;20253;-84
2024/01/05 13:14:52;;;;;;;;;;;5.60;58.10;;;3.80;61.43;100087.91;12251195;19;20365;-86
2024/01/05 13:18:54;;;;;;;;;;;5.40;58.10;;;3.81;61.33;100103.34;12251209;19;19926;-85
2024/01/05 13:22:58;;;;;;;;;;;5.40;57.90;;;3.79;61.55;100087.06;12248281;19;20324;-84
2024/01/05 13:27:00;;;;;;;;;;;5.40;57.80;;;3.78;61.42;100095.72;12245954;19;20369;-84
2024/01/05 13:31:01;;;;;;;;;;;5.40;57.90;;;3.80;61.52;100083.59;12251612;19;19922;-84
2024/01/05 13:35:05;;;;;;;;;;;5.40;58.20;;;3.85;61.57;100096.31;12251139;19;20341;-84
2024/01/05 13:39:07;;;;;;;;;;;5.40;58.10;;;3.75;61.61;100082.91;12250580;19;19914;-84
2024/01/05 13:43:08;;;;;;;;;;;5.60;58.30;;;3.47;61.66;100036.63;12251078;19;19919;-85
2024/01/05 13:47:10;;;;;;;;;;;5.40;58.30;;;3.81;61.33;100087.88;12249306;19;19918;-85
2024/01/05 13:51:11;;;;;;;;;;;5.40;58.00;;;3.79;61.70;100091.41;12250249;19;19918;-84
2024/01/05 13:55:13;;;;;;;;;;;5.50;58.20;;;3.77;61.46;100073.38;12249232;19;19927;-85
2024/01/05 13:59:14;;;;;;;;;;;5.50;58.00;;;3.84;61.59;100071.41;12252068;19;20252;-85
2024/01/05 14:03:16;;;;;;;;;;;5.50;58.30;;;3.76;61.57;100059.63;12249294;19;19922;-85
2024/01/05 14:07:17;;;;;;;;;;;5.50;58.30;;;3.83;61.59;100070.56;12250001;19;19929;-85
2024/01/05 14:11:18;;;;;;;;;;;5.40;58.20;;;3.87;61.46;100077.28;12250946;19;20263;-85
2024/01/05 14:15:20;;;;;;;;;;;5.50;58.00;;;3.65;61.73;100032.53;12250032;19;19919;-85
2024/01/05 14:19:21;;;;;;;;;;;5.50;58.20;;;3.59;61.34;100014.69;12249525;19;19919;-84
2024/01/05 14:23:23;;;;;;;;;;;5.50;58.40;;;3.88;61.67;100067.81;12249142;19;19982;-84
2024/01/05 14:27:24;;;;;;;;;;;5.50;58.10;;;3.90;61.56;100072.00;12246623;19;20315;-84
2024/01/05 14:31:27;;;;;;;;;;;5.50;58.20;;;3.85;61.70;100057.59;12247138;19;19949;-84
2024/01/05 14:35:28;;;;;;;;;;;5.50;58.40;;;3.87;61.65;100061.81;12247031;19;20022;-84
2024/01/05 14:39:30;;;;;;;;;;;5.70;58.40;;;3.67;61.56;100018.69;12249698;19;19978;-85
2024/01/05 14:43:34;;;;;;;;;;;5.50;58.50;;;3.84;61.52;100036.09;12248366;19;19918;-85
2024/01/05 14:47:35;;;;;;;;;;;5.50;58.30;;;3.90;61.48;100064.25;12245540;19;19930;-84
2024/01/05 14:51:37;;;;;;;;;;;5.50;58.20;;;3.90;61.53;100055.69;12250233;19;19926;-84
2024/01/05 14:55:38;;;;;;;;;;;5.50;58.20;;;3.87;61.60;100048.88;12244930;19;19926;-84
2024/01/05 14:59:39;;;;;;;;;;;5.50;58.20;;;3.94;61.49;100060.69;12250150;19;19938;-84
2024/01/05 15:03:41;;;;;;;;;;;5.50;58.10;;;3.96;61.61;100061.44;12246066;19;20264;-84
2024/01/05 15:07:42;;;;;;;;;;;5.50;58.30;;;3.98;61.40;100043.31;12243938;19;19930;-85
2024/01/05 15:11:44;;;;;;;;;;;5.60;58.10;;;4.01;61.59;100053.50;12230754;19;20498;-84
2024/01/05 15:15:45;;;;;;;;;;;5.80;58.70;;;3.99;61.70;100058.72;12233756;19;19915;-85
2024/01/05 15:19:46;;;;;;;;;;;5.60;58.10;;;3.89;61.62;100056.56;12234117;19;19922;-84
2024/01/05 15:23:48;;;;;;;;;;;5.60;58.10;;;3.81;61.58;100049.13;12231782;19;19926;-85
2024/01/05 15:27:49;;;;;;;;;;;5.60;58.20;;;3.93;61.45;100056.38;12227954;19;19925;-85
2024/01/05 15:31:52;;;;;;;;;;;5.60;58.20;;;3.94;61.48;100052.06;12232411;19;19939;-85
2024/01/05 15:35:54;;;;;;;;;;;5.60;58.10;;;3.99;61.46;100056.16;12227897;19;20026;-85
2024/01/05 15:39:55;;;;;;;;;;;5.60;58.20;;;4.05;61.57;100070.59;12233895;19;19922;-85
2024/01/05 15:43:57;;;;;;;;;;;5.70;58.10;;;3.98;61.54;100056.22;12237418;19;20142;-85
2024/01/05 15:47:59;;;;;;;;;;;5.60;58.20;;;4.06;61.49;100063.69;12243244;19;19915;-85
2024/01/05 15:52:00;;;;;;;;;;;5.60;58.50;;;4.06;61.63;100061.09;12246440;19;19930;-85
2024/01/05 15:56:02;;;;;;;;;;;5.60;58.20;;;4.06;61.67;100055.94;12242840;19;20337;-85
2024/01/05 16:00:05;;;;;;;;;;;5.60;58.20;;;3.96;61.39;100040.78;12245355;19;19926;-85
2024/01/05 16:04:13;;;;;;;;;;;5.60;58.10;;;3.99;61.48;100030.31;12243315;19;19922;-84
2024/01/05 16:08:14;;;;;;;;;;;5.60;58.10;;;3.97;61.51;100032.13;12242039;19;19942;-84
2024/01/05 16:12:17;;;;;;;;;;;5.60;58.10;;;3.85;61.70;100022.28;12238405;19;19918;-84
2024/01/05 16:16:22;;;;;;;;;;;5.60;58.10;;;4.03;61.52;100048.31;12242087;19;19911;-84
2024/01/05 16:20:23;;;;;;;;;;;5.60;58.10;;;3.89;61.63;100029.00;12241217;19;20356;-84
2024/01/05 16:24:25;;;;;;;;;;;5.60;58.10;;;4.03;61.64;100051.72;12242885;19;19919;-85
2024/01/05 16:28:26;;;;;;;;;;;5.60;58.10;;;3.89;61.72;100041.06;12240372;19;19942;-84
2024/01/05 16:32:29;;;;;;;;;;;5.60;58.20;;;4.05;61.52;100060.25;12241823;19;19923;-84
2024/01/05 16:36:31;;;;;;;;;;;5.60;58.10;;;3.99;61.64;100063.06;12243398;19;19923;-84
2024/01/05 16:40:34;;;;;;;;;;;5.60;58.20;;;4.02;61.64;100062.94;12242224;19;19931;-84
2024/01/05 16:44:35;;;;;;;;;;;5.60;58.30;;;4.07;61.83;100067.94;12239162;19;19942;-84
2024/01/05 16:48:37;;;;;;;;;;;5.70;58.10;;;3.97;61.79;100050.22;12239010;19;19990;-85
2024/01/05 16:52:38;;;;;;;;;;;5.70;58.30;;;4.02;61.67;100059.50;12241168;19;19975;-84
2024/01/05 16:56:41;;;;;;;;;;;5.70;58.30;;;4.08;61.48;100064.44;12246562;19;20373;-84
2024/01/05 17:00:43;;;;;;;;;;;5.70;58.50;;;4.05;61.65;100064.56;12253662;19;19915;-84
2024/01/05 17:04:44;;;;;;;;;;;5.70;58.30;;;4.06;61.54;100066.25;12255871;19;19921;-84
2024/01/05 17:08:46;;;;;;;;;;;5.60;58.20;;;4.11;61.67;100074.69;12245993;19;20341;-84
2024/01/05 17:12:48;;;;;;;;;;;5.70;58.30;;;3.98;61.62;100046.72;12255098;19;19962;-85
2024/01/05 17:16:49;;;;;;;;;;;5.70;58.20;;;4.08;61.71;100065.31;12247097;19;19929;-85
2024/01/05 17:20:51;;;;;;;;;;;5.90;58.10;;;4.08;61.87;100069.59;12252122;19;19919;-84
2024/01/05 17:24:52;;;;;;;;;;;5.70;58.10;;;3.88;61.62;100057.47;12248324;19;19915;-85
2024/01/05 17:28:54;;;;;;;;;;;5.70;58.10;;;4.08;61.90;100077.34;12247569;19;19926;-84
2024/01/05 17:32:56;;;;;;;;;;;5.70;58.10;;;4.15;61.74;100089.97;12251905;19;19925;-85
2024/01/05 17:36:57;;;;;;;;;;;5.70;58.10;;;4.14;61.76;100087.47;12246807;19;19940;-85
2024/01/05 17:40:59;;;;;;;;;;;5.70;58.20;;;4.07;61.74;100089.44;12251845;19;19930;-85
2024/01/05 17:45:01;;;;;;;;;;;5.90;58.20;;;3.85;61.67;100050.69;12251458;19;19938;-86
2024/01/05 17:49:03;;;;;;;;;;;5.80;58.20;;;4.15;61.76;100108.06;12251878;19;19923;-84
2024/01/05 17:53:04;;;;;;;;;;;5.80;58.10;;;4.07;61.74;100088.59;12245906;19;19927;-85
2024/01/05 17:57:06;;;;;;;;;;;5.80;58.20;;;3.99;61.60;100070.81;12247290;19;19923;-85
2024/01/05 18:01:07;;;;;;;;;;;5.80;58.20;;;4.21;61.73;100107.84;12247486;19;19922;-85
2024/01/05 18:05:09;;;;;;;;;;;5.80;58.10;;;4.21;61.75;100113.03;12248311;19;19914;-85
2024/01/05 18:09:11;;;;;;;;;;;5.80;58.10;;;4.13;61.75;100078.03;12240317;19;19978;-85
2024/01/05 18:13:12;;;;;;;;;;;5.80;58.10;;;4.18;61.82;100097.59;12248445;19;19922;-85
2024/01/05 18:17:14;;;;;;;;;;;5.80;58.10;;;4.19;61.66;100101.06;12245960;19;19922;-85
2024/01/05 18:21:17;;;;;;;;;;;5.80;58.10;;;4.20;61.77;100100.97;12247336;19;19926;-85
2024/01/05 18:25:19;;;;;;;;;;;6.00;58.20;;;4.24;61.90;100103.44;12246610;19;19923;-85
2024/01/05 18:29:24;;;;;;;;;;;6.00;58.30;;;4.24;61.75;100117.22;12244872;19;19918;-85
2024/01/05 18:33:25;;;;;;;;;;;5.80;58.30;;;4.27;61.77;100113.69;12250163;19;20350;-86